Time;durP1;ratioP1;P1;durP2;ratioP2;P2;SDS_P1;SDS_P2;PMS_P1;PMS_P2;Temp;Humidity;BMP_temperature;BMP_pressure;BME280_temperature;BME280_humidity;BME280_pressure;Samples;Min_cycle;Max_cycle;Signal;HPM_P1;HPM_P2
2020/12/20 00:00:14;;;;;;;;;;;;;;;;;;;;;
2020/12/20 00:00:52;;;;;;;17.60;10.27;;;17.20;50.20;;;;;;1041333;28;20059;-82
2020/12/20 00:01:27;;;;;;;14.23;10.48;;;17.20;50.10;;;;;;1044821;28;20029;-80
2020/12/20 00:02:54;;;;;;;17.73;10.30;;;17.20;50.00;;;;;;1039947;28;20044;-81
2020/12/20 00:03:31;;;;;;;15.80;10.38;;;17.20;50.20;;;;;;1040162;28;20478;-81
2020/12/20 00:04:16;;;;;;;15.23;9.98;;;17.20;50.50;;;;;;1042362;28;20032;-81
2020/12/20 00:04:55;;;;;;;16.30;10.20;;;17.20;50.40;;;;;;1040859;28;20021;-81
2020/12/20 00:05:33;;;;;;;13.38;9.95;;;17.10;50.30;;;;;;1039369;28;20451;-82
2020/12/20 00:06:17;;;;;;;;;;;;;;;;;;;;;
2020/12/20 00:07:09;;;;;;;13.85;9.98;;;17.10;50.70;;;;;;1039684;28;20022;-81
2020/12/20 00:07:57;;;;;;;12.57;9.25;;;17.10;50.10;;;;;;1044794;28;20025;-82
2020/12/20 00:08:55;;;;;;;13.88;10.20;;;17.10;50.10;;;;;;1040733;28;20036;-82
2020/12/20 00:09:38;;;;;;;15.45;10.20;;;17.10;50.30;;;;;;1042916;28;20024;-81
2020/12/20 00:10:10;;;;;;;15.65;10.38;;;17.10;50.00;;;;;;1040792;28;20022;-81
2020/12/20 00:10:47;;;;;;;15.43;9.93;;;17.10;50.00;;;;;;1036726;28;20399;-81
2020/12/20 00:12:01;;;;;;;;;;;;;;;;;;;;;
2020/12/20 00:12:35;;;;;;;13.73;9.40;;;17.10;50.00;;;;;;1042184;28;20040;-81
2020/12/20 00:15:40;;;;;;;13.65;8.88;;;17.00;50.20;;;;;;1031587;28;20038;-81
2020/12/20 00:16:11;;;;;;;12.40;8.90;;;17.00;50.30;;;;;;1030945;28;20030;-82
2020/12/20 00:17:24;;;;;;;13.00;9.38;;;17.00;50.50;;;;;;1032352;28;20023;-82
2020/12/20 00:18:28;;;;;;;12.65;9.52;;;17.00;50.70;;;;;;1029821;28;20078;-81
2020/12/20 00:19:03;;;;;;;14.57;9.50;;;17.00;50.40;;;;;;1032649;28;20053;-82
2020/12/20 00:19:51;;;;;;;13.93;9.38;;;17.00;50.40;;;;;;1032577;28;20333;-83
2020/12/20 00:20:28;;;;;;;12.13;8.70;;;16.90;50.60;;;;;;1028484;28;20137;-82
2020/12/20 00:21:40;;;;;;;12.77;8.75;;;16.90;50.60;;;;;;1028317;28;20015;-83
2020/12/20 00:22:23;;;;;;;12.80;9.02;;;16.90;50.60;;;;;;1029442;28;20113;-82
2020/12/20 00:23:20;;;;;;;12.63;9.10;;;16.90;50.70;;;;;;1028553;28;20101;-84
2020/12/20 00:24:44;;;;;;;11.93;8.18;;;16.90;50.80;;;;;;1028592;28;20345;-83
2020/12/20 00:25:46;;;;;;;15.52;9.02;;;16.80;51.30;;;;;;1025105;28;20377;-83
2020/12/20 00:26:52;;;;;;;13.93;8.30;;;16.80;51.20;;;;;;1008647;29;20033;-83
2020/12/20 00:27:38;;;;;;;14.63;8.70;;;16.80;51.30;;;;;;996909;29;20071;-82
2020/12/20 00:28:21;;;;;;;12.73;8.77;;;16.70;51.40;;;;;;996400;29;20026;-82
2020/12/20 00:29:08;;;;;;;13.70;9.07;;;16.80;51.70;;;;;;1003740;29;20030;-82
2020/12/20 00:29:51;;;;;;;11.27;8.68;;;16.70;52.10;;;;;;1020645;29;20028;-82
2020/12/20 00:30:34;;;;;;;12.25;8.70;;;16.60;52.20;;;;;;1019590;29;20086;-83
2020/12/20 00:31:22;;;;;;;13.60;8.52;;;16.70;52.40;;;;;;1024286;28;20394;-83
2020/12/20 00:32:27;;;;;;;13.20;8.80;;;16.60;52.60;;;;;;1024095;29;20320;-83
2020/12/20 00:33:31;;;;;;;12.35;8.20;;;16.50;52.90;;;;;;1018905;28;20040;-83
2020/12/20 00:34:09;;;;;;;12.30;8.18;;;16.40;53.10;;;;;;1027493;28;20023;-83
2020/12/20 00:34:57;;;;;;;12.93;8.38;;;16.30;53.30;;;;;;1023172;28;20031;-83
2020/12/20 00:36:03;;;;;;;12.85;8.57;;;16.30;53.60;;;;;;1027755;28;20030;-83
2020/12/20 00:36:38;;;;;;;13.63;8.18;;;16.20;53.90;;;;;;1032225;28;20047;-83
2020/12/20 00:37:15;;;;;;;14.88;8.57;;;16.10;54.00;;;;;;1031991;28;20034;-82
2020/12/20 00:37:47;;;;;;;16.40;8.73;;;16.00;54.30;;;;;;1026668;29;20034;-82
2020/12/20 00:38:18;;;;;;;14.95;8.25;;;16.00;54.40;;;;;;1027178;29;20020;-81
2020/12/20 00:38:52;;;;;;;12.43;7.95;;;16.00;54.40;;;;;;1029291;28;20015;-82
2020/12/20 00:39:24;;;;;;;11.85;7.85;;;16.00;54.40;;;;;;1028214;28;20032;-82
2020/12/20 00:39:58;;;;;;;11.98;8.05;;;16.00;54.50;;;;;;1032460;28;20023;-81
2020/12/20 00:40:29;;;;;;;11.43;7.78;;;16.00;54.60;;;;;;1030497;28;20034;-81
2020/12/20 00:41:10;;;;;;;12.95;7.65;;;15.90;54.60;;;;;;1029042;28;20015;-81
2020/12/20 00:42:09;;;;;;;13.05;8.50;;;15.80;54.70;;;;;;1031246;28;20034;-81
2020/12/20 00:42:40;;;;;;;12.43;7.90;;;15.80;54.80;;;;;;1025664;28;20034;-81
2020/12/20 00:43:12;;;;;;;15.70;8.10;;;15.70;54.90;;;;;;1037150;28;20017;-80
2020/12/20 00:43:43;;;;;;;13.68;8.15;;;15.70;55.10;;;;;;1036962;28;20014;-80
2020/12/20 00:44:23;;;;;;;13.77;8.88;;;15.60;55.20;;;;;;1033557;28;20065;-82
2020/12/20 00:44:58;;;;;;;11.80;8.02;;;15.60;55.20;;;;;;1037374;28;20032;-81
2020/12/20 00:45:58;;;;;;;13.93;7.90;;;15.60;55.30;;;;;;1034839;28;20030;-80
2020/12/20 00:47:01;;;;;;;12.40;7.85;;;15.50;55.50;;;;;;1035425;28;20075;-80
2020/12/20 00:47:43;;;;;;;11.52;7.72;;;15.50;55.40;;;;;;1040934;28;20032;-81
2020/12/20 00:48:50;;;;;;;10.50;7.40;;;15.40;55.60;;;;;;1038803;28;20459;-81
2020/12/20 00:49:32;;;;;;;13.23;8.00;;;15.40;55.90;;;;;;1040641;28;20532;-80
2020/12/20 00:50:15;;;;;;;10.80;7.50;;;15.30;55.90;;;;;;1043521;28;20017;-81
2020/12/20 00:50:58;;;;;;;13.75;7.95;;;15.30;56.10;;;;;;1036891;28;20018;-81
2020/12/20 00:51:37;;;;;;;13.75;7.65;;;15.20;56.20;;;;;;1040886;28;20029;-81
2020/12/20 00:52:18;;;;;;;12.40;7.80;;;15.20;56.30;;;;;;1043573;28;20025;-81
2020/12/20 00:53:15;;;;;;;13.77;8.43;;;15.20;56.40;;;;;;1045356;28;20009;-81
2020/12/20 00:54:05;;;;;;;13.98;7.57;;;15.10;56.40;;;;;;1037111;28;20022;-81
2020/12/20 00:54:46;;;;;;;12.85;7.80;;;15.00;56.60;;;;;;1036994;28;20486;-83
2020/12/20 00:57:42;;;;;;;10.55;6.95;;;15.00;56.90;;;;;;1024507;28;20091;-80
2020/12/20 01:00:03;;;;;;;12.40;7.88;;;14.50;57.80;;;;;;1016750;29;20175;-81
2020/12/20 01:00:54;;;;;;;14.32;7.40;;;14.50;57.90;;;;;;1013849;29;20028;-81
2020/12/20 01:02:21;;;;;;;12.63;8.25;;;14.40;58.30;;;;;;1012738;29;20076;-81
2020/12/20 01:04:35;;;;;;;12.82;7.97;;;14.10;59.20;;;;;;1004001;29;20460;-81
2020/12/20 01:06:49;;;;;;;13.35;8.13;;;13.90;59.60;;;;;;1002804;29;20041;-81
2020/12/20 01:07:39;;;;;;;12.55;8.10;;;13.90;59.90;;;;;;1000307;29;20026;-81
2020/12/20 01:08:23;;;;;;;12.98;7.63;;;13.80;60.00;;;;;;1002661;29;20477;-81
2020/12/20 01:09:35;;;;;;;12.73;7.10;;;13.80;60.10;;;;;;1020191;29;20024;-80
2020/12/20 01:11:36;;;;;;;11.82;7.75;;;13.60;60.60;;;;;;1032649;28;20395;-81
2020/12/20 01:12:36;;;;;;;11.95;7.95;;;13.50;60.80;;;;;;1029016;28;20018;-80
2020/12/20 01:13:10;;;;;;;12.68;8.15;;;13.50;61.20;;;;;;1018379;29;20035;-81
2020/12/20 01:14:14;;;;;;;11.93;7.57;;;13.40;61.30;;;;;;1018840;29;20023;-81
2020/12/20 01:15:00;;;;;;;12.90;7.28;;;13.40;61.50;;;;;;1008644;29;20025;-80
2020/12/20 01:15:47;;;;;;;12.82;7.90;;;13.30;61.70;;;;;;1015366;29;20028;-81
2020/12/20 01:16:33;;;;;;;12.43;8.00;;;13.30;61.80;;;;;;1020542;29;20342;-81
2020/12/20 01:17:22;;;;;;;12.38;7.55;;;13.30;62.00;;;;;;1020425;29;20028;-81
2020/12/20 01:17:57;;;;;;;12.48;7.78;;;13.20;62.20;;;;;;1016778;29;20024;-81
2020/12/20 01:18:37;;;;;;;11.30;7.53;;;13.20;62.30;;;;;;1023192;28;20028;-81
2020/12/20 01:19:11;;;;;;;11.98;8.07;;;13.10;62.50;;;;;;1029940;28;20014;-80
2020/12/20 01:19:46;;;;;;;12.45;7.68;;;13.10;62.60;;;;;;1027403;28;20856;-81
2020/12/20 01:20:20;;;;;;;12.90;7.85;;;13.10;62.60;;;;;;1028797;28;20027;-80
2020/12/20 01:21:17;;;;;;;14.60;7.68;;;13.10;62.60;;;;;;1024598;28;20057;-81
2020/12/20 01:21:54;;;;;;;12.50;7.63;;;13.10;62.60;;;;;;1027968;28;20383;-80
2020/12/20 01:22:45;;;;;;;11.38;7.28;;;13.10;62.30;;;;;;1032376;28;20031;-80
2020/12/20 01:23:31;;;;;;;11.23;7.43;;;13.10;62.30;;;;;;1029363;28;20180;-80
2020/12/20 01:24:20;;;;;;;11.82;7.40;;;13.10;62.40;;;;;;1027446;28;20034;-81
2020/12/20 01:25:16;;;;;;;12.38;7.80;;;13.10;62.60;;;;;;1024880;28;20020;-80
2020/12/20 01:26:09;;;;;;;11.00;7.55;;;13.00;62.80;;;;;;1026130;28;20142;-81
2020/12/20 01:27:18;;;;;;;11.52;8.30;;;13.00;62.90;;;;;;1028830;28;20326;-80
2020/12/20 01:29:21;;;;;;;11.88;7.80;;;12.80;63.50;;;;;;1020298;29;20127;-80
2020/12/20 01:29:55;;;;;;;13.48;7.85;;;12.70;63.50;;;;;;1018726;29;20068;-80
2020/12/20 01:30:52;;;;;;;11.32;7.55;;;12.70;63.50;;;;;;1016326;29;20032;-81
2020/12/20 01:31:30;;;;;;;11.60;7.97;;;12.70;63.50;;;;;;1016652;29;20458;-80
2020/12/20 01:32:04;;;;;;;13.45;7.57;;;12.80;63.40;;;;;;1021017;29;20020;-80
2020/12/20 01:33:17;;;;;;;;;;;;;;;;;;;;;
2020/12/20 01:34:02;;;;;;;11.75;7.30;;;12.70;63.50;;;;;;1022634;29;20035;-80
2020/12/20 01:34:59;;;;;;;13.85;7.80;;;12.70;63.70;;;;;;1024134;28;20449;-80
2020/12/20 01:35:57;;;;;;;11.70;7.97;;;12.60;63.90;;;;;;1008159;29;20120;-81
2020/12/20 01:37:04;;;;;;;14.05;7.68;;;12.60;64.00;;;;;;1018505;29;20048;-80
2020/12/20 01:37:48;;;;;;;15.13;8.02;;;12.50;64.40;;;;;;1024096;29;20070;-80
2020/12/20 01:39:37;;;;;;;12.40;8.50;;;12.50;64.50;;;;;;1027998;28;20484;-80
2020/12/20 01:40:40;;;;;;;12.95;8.55;;;12.40;64.60;;;;;;1014073;29;20067;-80
2020/12/20 01:41:30;;;;;;;14.55;8.50;;;12.40;64.20;;;;;;1011782;29;20028;-80
2020/12/20 01:42:17;;;;;;;12.90;7.90;;;12.40;64.20;;;;;;1013759;29;20092;-80
2020/12/20 01:42:58;;;;;;;13.00;8.20;;;12.40;64.20;;;;;;1016513;29;20032;-80
2020/12/20 01:43:57;;;;;;;;;;;12.40;64.40;;;;;;1019103;29;20532;-80
2020/12/20 01:45:03;;;;;;;;;;;;;;;;;;;;;
2020/12/20 01:45:42;;;;;;;17.55;9.40;;;12.30;64.50;;;;;;1012693;29;20367;-80
2020/12/20 01:47:12;;;;;;;18.63;10.05;;;12.30;64.90;;;;;;1023633;29;20039;-80
2020/12/20 01:49:20;;;;;;;15.93;9.05;;;12.10;65.20;;;;;;1012609;29;20145;-81
2020/12/20 01:50:03;;;;;;;15.88;9.40;;;12.10;65.20;;;;;;1012396;29;20055;-80
2020/12/20 01:50:51;;;;;;;15.40;9.07;;;12.10;65.10;;;;;;1009663;29;20044;-81
2020/12/20 01:51:32;;;;;;;14.45;9.30;;;12.10;65.10;;;;;;1008962;29;20459;-80
2020/12/20 01:52:23;;;;;;;13.40;9.10;;;12.10;65.60;;;;;;1005073;29;20039;-80
2020/12/20 01:55:01;;;;;;;17.40;9.75;;;11.90;66.40;;;;;;1021732;28;20039;-80
2020/12/20 01:55:45;;;;;;;14.35;9.02;;;11.80;66.70;;;;;;1024154;28;20059;-80
2020/12/20 01:57:01;;;;;;;16.48;9.27;;;11.80;66.80;;;;;;1016807;29;20128;-81
2020/12/20 01:57:58;;;;;;;15.50;8.80;;;11.80;67.10;;;;;;1040962;28;20096;-81
2020/12/20 01:58:51;;;;;;;11.32;8.43;;;11.70;67.20;;;;;;1041378;28;20038;-80
2020/12/20 01:59:31;;;;;;;14.77;8.77;;;11.70;67.50;;;;;;1044792;28;20017;-79
2020/12/20 02:00:28;;;;;;;12.95;8.73;;;11.60;67.50;;;;;;1043992;28;20328;-81
2020/12/20 02:01:15;;;;;;;12.45;8.90;;;11.60;67.60;;;;;;1040600;28;20025;-80
2020/12/20 02:01:49;;;;;;;14.98;9.48;;;11.60;67.80;;;;;;1036888;28;20026;-80
2020/12/20 02:02:30;;;;;;;13.85;9.73;;;11.50;68.00;;;;;;1032280;28;20073;-79
2020/12/20 02:03:06;;;;;;;;;;;11.50;68.10;;;;;;1033754;28;20057;-80
2020/12/20 02:03:47;;;;;;;14.15;8.98;;;11.50;68.30;;;;;;1038181;28;19972;-80
2020/12/20 02:04:27;;;;;;;13.70;9.63;;;11.50;68.40;;;;;;1036734;28;20025;-79
2020/12/20 02:05:11;;;;;;;15.68;9.85;;;11.50;68.30;;;;;;1036731;28;20040;-80
2020/12/20 02:05:48;;;;;;;12.93;8.98;;;11.50;68.50;;;;;;1033400;28;20027;-80
2020/12/20 02:06:26;;;;;;;13.88;10.05;;;11.40;68.50;;;;;;1036579;28;20503;-79
2020/12/20 02:07:16;;;;;;;15.65;10.20;;;11.40;68.70;;;;;;1032556;28;20035;-80
2020/12/20 02:08:28;;;;;;;16.17;9.80;;;11.40;68.70;;;;;;1040362;28;20053;-80
2020/12/20 02:09:03;;;;;;;14.68;9.43;;;11.40;68.70;;;;;;1045854;28;20025;-80
2020/12/20 02:09:44;;;;;;;15.13;9.98;;;11.40;68.90;;;;;;1045183;28;20119;-81
2020/12/20 02:10:31;;;;;;;14.32;9.57;;;11.30;68.90;;;;;;1040890;28;20355;-80
2020/12/20 02:13:39;;;;;;;17.25;10.00;;;11.30;69.00;;;;;;1024804;28;20469;-80
2020/12/20 02:14:26;;;;;;;16.13;10.75;;;11.30;69.20;;;;;;1029648;28;20022;-80
2020/12/20 02:15:41;;;;;;;18.10;10.70;;;11.20;69.30;;;;;;1029423;28;20620;-80
2020/12/20 02:17:49;;;;;;;18.20;10.57;;;11.30;69.30;;;;;;1029699;28;20638;-81
2020/12/20 02:18:23;;;;;;;16.85;10.50;;;11.30;69.30;;;;;;1029024;28;20100;-81
2020/12/20 02:19:22;;;;;;;15.57;10.70;;;11.20;69.50;;;;;;1024727;28;20425;-81
2020/12/20 02:19:53;;;;;;;17.73;10.77;;;11.20;69.60;;;;;;1024035;28;20432;-80
2020/12/20 02:21:04;;;;;;;15.60;10.68;;;11.20;69.70;;;;;;1027092;28;20572;-80
2020/12/20 02:21:44;;;;;;;15.43;9.95;;;11.10;69.80;;;;;;1026604;28;20476;-80
2020/12/20 02:22:25;;;;;;;15.63;10.32;;;11.10;69.90;;;;;;1028612;28;20113;-81
2020/12/20 02:23:31;;;;;;;20.23;10.20;;;11.10;70.00;;;;;;1028747;28;20070;-80
2020/12/20 02:24:43;;;;;;;16.52;10.13;;;11.10;70.00;;;;;;1017170;29;20120;-80
2020/12/20 02:25:39;;;;;;;16.00;10.25;;;11.00;70.30;;;;;;1020776;29;20046;-80
2020/12/20 02:27:19;;;;;;;17.20;10.32;;;11.00;70.40;;;;;;1020954;29;20051;-80
2020/12/20 02:29:17;;;;;;;16.33;10.25;;;10.90;70.80;;;;;;1024238;29;20031;-80
2020/12/20 02:30:09;;;;;;;16.95;10.32;;;10.90;71.00;;;;;;1024586;29;20405;-82
2020/12/20 02:31:00;;;;;;;14.85;10.05;;;10.90;71.10;;;;;;1024410;29;20019;-79
2020/12/20 02:31:52;;;;;;;15.73;10.25;;;10.80;71.20;;;;;;1033110;28;20041;-79
2020/12/20 02:32:24;;;;;;;18.15;10.45;;;10.80;71.30;;;;;;1029274;28;20019;-78
2020/12/20 02:33:21;;;;;;;17.00;10.15;;;10.80;71.10;;;;;;1028594;28;20031;-79
2020/12/20 02:34:32;;;;;;;17.13;10.45;;;10.80;71.10;;;;;;1021920;28;20416;-80
2020/12/20 02:35:09;;;;;;;16.52;10.32;;;10.80;71.40;;;;;;1030515;28;20048;-80
2020/12/20 02:35:52;;;;;;;14.73;10.32;;;10.70;71.40;;;;;;1040247;28;20087;-80
2020/12/20 02:36:55;;;;;;;15.48;10.25;;;10.80;71.50;;;;;;1040162;28;20017;-80
2020/12/20 02:37:32;;;;;;;15.48;9.90;;;10.70;71.70;;;;;;1039273;28;20100;-80
2020/12/20 02:38:09;;;;;;;14.88;9.68;;;10.80;71.40;;;;;;1038152;28;20030;-80
2020/12/20 02:39:46;;;;;;;16.17;9.57;;;10.80;71.10;;;;;;1033157;28;20030;-80
2020/12/20 02:40:20;;;;;;;16.13;10.65;;;10.80;71.30;;;;;;1045871;28;20029;-80
2020/12/20 02:40:57;;;;;;;16.60;9.90;;;10.80;71.10;;;;;;1043939;28;20044;-80
2020/12/20 02:41:32;;;;;;;16.83;10.05;;;10.80;71.00;;;;;;1045532;28;20033;-80
2020/12/20 02:42:32;;;;;;;;;;;;;;;;;;;;;
2020/12/20 02:43:04;;;;;;;15.18;10.65;;;10.80;70.80;;;;;;1042160;28;20029;-80
2020/12/20 02:43:44;;;;;;;16.52;10.60;;;10.90;70.90;;;;;;1038229;28;20131;-80
2020/12/20 02:44:50;;;;;;;15.02;10.75;;;10.80;71.00;;;;;;1036657;28;20061;-80
2020/12/20 02:45:25;;;;;;;17.25;10.70;;;10.80;71.30;;;;;;1032280;28;20031;-79
2020/12/20 02:46:02;;;;;;;14.40;10.20;;;10.80;71.30;;;;;;1038670;28;20070;-80
2020/12/20 02:46:56;;;;;;;15.07;10.57;;;10.80;71.40;;;;;;1040749;28;20479;-80
2020/12/20 02:47:47;;;;;;;15.10;10.40;;;10.70;71.50;;;;;;1028669;28;20038;-80
2020/12/20 02:48:41;;;;;;;;;;;10.70;71.60;;;;;;1029175;28;20023;-80
2020/12/20 02:50:02;;;;;;;13.23;10.07;;;10.70;71.70;;;;;;1017999;29;20002;-80
2020/12/20 02:50:43;;;;;;;13.95;10.18;;;10.60;72.10;;;;;;1018475;29;20088;-80
2020/12/20 02:51:30;;;;;;;13.23;9.82;;;10.60;72.20;;;;;;1032825;28;20041;-80
2020/12/20 02:52:16;;;;;;;16.90;10.60;;;10.60;72.30;;;;;;1035664;28;20030;-80
2020/12/20 02:53:19;;;;;;;15.30;10.07;;;10.50;72.30;;;;;;1036968;28;20045;-80
2020/12/20 02:54:22;;;;;;;17.30;10.45;;;10.50;72.50;;;;;;1038290;28;20136;-80
2020/12/20 02:56:14;;;;;;;15.90;10.55;;;10.60;72.50;;;;;;1045211;28;20075;-80
2020/12/20 02:56:46;;;;;;;15.13;10.27;;;10.70;72.40;;;;;;1043372;28;20037;-79
2020/12/20 02:57:23;;;;;;;14.98;10.02;;;10.70;72.90;;;;;;1041811;28;20040;-79
2020/12/20 02:57:56;;;;;;;18.00;10.85;;;10.70;72.80;;;;;;1041422;28;20168;-79
2020/12/20 02:59:06;;;;;;;16.52;10.77;;;10.70;72.30;;;;;;1041470;28;20467;-79
2020/12/20 02:59:43;;;;;;;19.27;10.82;;;10.70;72.30;;;;;;1037178;28;20133;-80
2020/12/20 03:00:34;;;;;;;17.88;10.55;;;10.60;72.50;;;;;;1035179;28;20407;-80
2020/12/20 03:01:06;;;;;;;17.10;11.25;;;10.60;72.60;;;;;;1036723;28;20058;-80
2020/12/20 03:02:18;;;;;;;;;;;;;;;;;;;;;
2020/12/20 03:03:40;;;;;;;16.05;10.27;;;10.50;73.00;;;;;;1043010;28;20029;-80
2020/12/20 03:04:37;;;;;;;15.63;10.40;;;10.40;73.20;;;;;;1035325;28;20103;-80
2020/12/20 03:05:35;;;;;;;17.73;10.63;;;10.40;73.50;;;;;;1028663;28;20039;-80
2020/12/20 03:06:28;;;;;;;16.13;9.65;;;10.30;73.60;;;;;;1024617;29;20027;-80
2020/12/20 03:07:29;;;;;;;16.48;10.48;;;10.30;73.60;;;;;;1020769;29;20034;-80
2020/12/20 03:08:06;;;;;;;13.35;10.15;;;10.30;73.50;;;;;;1024193;29;20495;-79
2020/12/20 03:08:46;;;;;;;15.68;10.57;;;10.30;73.20;;;;;;1022387;29;20062;-80
2020/12/20 03:09:24;;;;;;;17.63;11.13;;;10.30;73.10;;;;;;1021191;29;20016;-80
2020/12/20 03:10:17;;;;;;;;;;;;;;;;;;;;;
2020/12/20 03:10:54;;;;;;;15.05;10.38;;;10.30;73.10;;;;;;1040935;28;20022;-80
2020/12/20 03:11:25;;;;;;;16.48;10.68;;;10.30;73.40;;;;;;1037269;28;20033;-79
2020/12/20 03:12:07;;;;;;;15.93;10.60;;;10.30;73.50;;;;;;1038302;28;20010;-80
2020/12/20 03:12:47;;;;;;;14.95;10.65;;;10.20;73.50;;;;;;1037218;28;20014;-80
2020/12/20 03:14:07;;;;;;;17.45;10.45;;;10.20;73.60;;;;;;1035721;28;20029;-80
2020/12/20 03:15:00;;;;;;;16.67;10.70;;;10.20;73.60;;;;;;1041978;28;20107;-80
2020/12/20 03:16:34;;;;;;;;;;;;;;;;;;;;;
2020/12/20 03:17:26;;;;;;;18.02;10.70;;;10.10;74.00;;;;;;1042570;28;20156;-80
2020/12/20 03:18:09;;;;;;;18.20;11.32;;;10.10;74.00;;;;;;1045187;28;20108;-80
2020/12/20 03:19:12;;;;;;;15.38;10.50;;;10.10;74.10;;;;;;1040861;28;20120;-80
2020/12/20 03:19:53;;;;;;;14.18;10.38;;;10.10;74.10;;;;;;1040452;28;20025;-80
2020/12/20 03:20:42;;;;;;;17.92;11.10;;;10.10;74.40;;;;;;1038111;28;20014;-80
2020/12/20 03:21:43;;;;;;;16.08;10.90;;;10.10;74.50;;;;;;1036330;28;20022;-80
2020/12/20 03:23:29;;;;;;;15.52;10.60;;;10.00;74.70;;;;;;1032106;28;19964;-80
2020/12/20 03:24:02;;;;;;;17.90;11.50;;;10.00;74.90;;;;;;1036072;28;20073;-80
2020/12/20 03:24:43;;;;;;;20.02;11.43;;;10.00;75.10;;;;;;1036746;28;20018;-80
2020/12/20 03:25:22;;;;;;;;;;;10.00;75.10;;;;;;1032659;28;20051;-80
2020/12/20 03:25:54;;;;;;;18.17;10.80;;;10.00;75.20;;;;;;1034897;28;19948;-80
2020/12/20 03:26:31;;;;;;;14.93;11.10;;;10.00;75.80;;;;;;1035822;28;20022;-81
2020/12/20 03:28:22;;;;;;;16.67;10.23;;;10.00;75.30;;;;;;1020748;29;20050;-81
2020/12/20 03:28:57;;;;;;;15.68;11.05;;;10.00;75.30;;;;;;1020070;29;20423;-80
2020/12/20 03:29:28;;;;;;;16.95;10.23;;;10.00;75.50;;;;;;1035575;28;20088;-79
2020/12/20 03:30:01;;;;;;;17.35;10.48;;;9.90;75.60;;;;;;1032892;28;20033;-80
2020/12/20 03:30:36;;;;;;;16.25;11.38;;;9.90;75.50;;;;;;1032913;28;20023;-80
2020/12/20 03:31:26;;;;;;;15.90;10.40;;;9.90;75.60;;;;;;1036920;28;20109;-78
2020/12/20 03:32:19;;;;;;;;;;;;;;;;;;;;;
2020/12/20 03:32:56;;;;;;;15.57;10.40;;;10.00;75.70;;;;;;1041277;28;20025;-79
2020/12/20 03:33:36;;;;;;;18.95;10.60;;;10.00;75.50;;;;;;1040844;28;20064;-79
2020/12/20 03:34:10;;;;;;;13.50;9.63;;;10.00;75.60;;;;;;1040029;28;20029;-80
2020/12/20 03:34:42;;;;;;;15.95;9.52;;;10.00;75.60;;;;;;1036849;28;20514;-79
2020/12/20 03:35:22;;;;;;;14.10;9.65;;;10.00;75.60;;;;;;1036817;28;20022;-80
2020/12/20 03:36:09;;;;;;;16.05;9.52;;;10.00;75.60;;;;;;1035805;28;20026;-80
2020/12/20 03:36:49;;;;;;;13.20;9.15;;;10.00;75.70;;;;;;1040720;28;20441;-80
2020/12/20 03:37:43;;;;;;;14.05;9.63;;;10.00;75.70;;;;;;1040567;28;20482;-79
2020/12/20 03:38:15;;;;;;;16.48;9.50;;;10.00;75.70;;;;;;1040882;28;20037;-78
2020/12/20 03:38:46;;;;;;;17.45;9.88;;;10.00;75.60;;;;;;1041022;28;20475;-79
2020/12/20 03:39:18;;;;;;;12.35;9.00;;;10.00;75.60;;;;;;1044958;28;20043;-79
2020/12/20 03:40:06;;;;;;;14.57;9.55;;;10.00;75.60;;;;;;1040886;28;20013;-79
2020/12/20 03:40:38;;;;;;;15.07;10.30;;;10.00;75.50;;;;;;1036909;28;20049;-80
2020/12/20 03:41:25;;;;;;;;;;;;;;;;;;;;;
2020/12/20 03:42:12;;;;;;;15.15;9.95;;;10.00;75.30;;;;;;1036681;28;20017;-80
2020/12/20 03:42:58;;;;;;;16.85;9.90;;;10.00;75.20;;;;;;1028827;28;20408;-80
2020/12/20 03:43:49;;;;;;;12.43;9.30;;;10.00;75.30;;;;;;1037047;28;20460;-80
2020/12/20 03:44:21;;;;;;;14.32;10.00;;;10.00;75.10;;;;;;1034368;28;20018;-80
2020/12/20 03:44:55;;;;;;;15.27;9.63;;;10.00;75.10;;;;;;1041174;28;20029;-80
2020/12/20 03:45:30;;;;;;;14.07;9.15;;;10.00;75.10;;;;;;1036927;28;20026;-78
2020/12/20 03:46:10;;;;;;;15.77;9.52;;;10.00;75.20;;;;;;1041562;28;20496;-80
2020/12/20 03:46:43;;;;;;;12.32;9.00;;;9.90;75.20;;;;;;1045361;28;20032;-79
2020/12/20 03:47:27;;;;;;;15.55;9.38;;;9.90;75.30;;;;;;1043260;28;20021;-79
2020/12/20 03:48:05;;;;;;;15.15;9.73;;;9.90;75.20;;;;;;1037115;28;20033;-79
2020/12/20 03:48:37;;;;;;;13.60;9.10;;;9.90;75.40;;;;;;1037238;28;20017;-80
2020/12/20 03:49:34;;;;;;;13.50;9.27;;;9.90;75.50;;;;;;1039001;28;20080;-80
2020/12/20 03:50:08;;;;;;;15.23;9.45;;;9.90;75.60;;;;;;1036799;28;20028;-80
2020/12/20 03:50:54;;;;;;;14.35;9.50;;;9.90;75.70;;;;;;1041447;28;20053;-79
2020/12/20 03:51:31;;;;;;;12.93;8.93;;;9.80;75.70;;;;;;1040699;28;20061;-80
2020/12/20 03:52:03;;;;;;;12.98;9.35;;;9.80;75.80;;;;;;1037131;28;20451;-79
2020/12/20 03:52:35;;;;;;;12.80;9.43;;;9.90;75.90;;;;;;1040271;28;20014;-79
2020/12/20 03:53:06;;;;;;;12.68;9.52;;;9.90;75.90;;;;;;1041152;28;20029;-81
2020/12/20 03:53:38;;;;;;;17.80;10.38;;;9.90;76.00;;;;;;1037353;28;20033;-80
2020/12/20 03:54:09;;;;;;;13.73;10.32;;;9.90;76.00;;;;;;1036838;28;20022;-80
2020/12/20 03:54:41;;;;;;;15.43;10.38;;;9.90;76.00;;;;;;1037563;28;20022;-80
2020/12/20 03:55:12;;;;;;;14.40;9.77;;;9.90;75.80;;;;;;1037519;28;20053;-80
2020/12/20 03:55:43;;;;;;;13.98;9.80;;;9.90;75.70;;;;;;1035391;28;20026;-80
2020/12/20 03:56:15;;;;;;;16.05;9.82;;;10.00;75.50;;;;;;1041215;28;20108;-80
2020/12/20 03:56:46;;;;;;;11.93;9.40;;;10.00;75.50;;;;;;1037639;28;20061;-80
2020/12/20 03:57:18;;;;;;;15.38;10.32;;;10.00;75.50;;;;;;1037421;28;20021;-81
2020/12/20 03:57:49;;;;;;;15.45;10.20;;;10.00;75.30;;;;;;1036812;28;20045;-81
2020/12/20 03:58:20;;;;;;;14.43;9.77;;;10.00;75.30;;;;;;1034974;28;20023;-81
2020/12/20 03:58:52;;;;;;;15.75;9.60;;;10.00;75.20;;;;;;1033359;28;20141;-80
2020/12/20 03:59:23;;;;;;;14.80;10.27;;;10.00;75.10;;;;;;1033906;28;20045;-80
2020/12/20 03:59:57;;;;;;;15.23;10.18;;;10.00;75.80;;;;;;1035485;28;20018;-80
2020/12/20 04:00:28;;;;;;;13.18;9.85;;;10.00;75.30;;;;;;1037103;28;20025;-81
2020/12/20 04:01:00;;;;;;;14.25;9.68;;;9.90;75.30;;;;;;1041099;28;20021;-81
2020/12/20 04:01:31;;;;;;;13.63;9.77;;;10.00;75.30;;;;;;1037799;28;20018;-81
2020/12/20 04:02:02;;;;;;;14.75;9.77;;;10.00;75.30;;;;;;1037322;28;20065;-80
2020/12/20 04:02:34;;;;;;;13.80;9.30;;;9.90;75.30;;;;;;1038199;28;20021;-82
2020/12/20 04:03:05;;;;;;;14.35;9.25;;;9.90;75.40;;;;;;1033337;28;20471;-82
2020/12/20 04:03:37;;;;;;;16.40;9.70;;;9.90;75.50;;;;;;1036838;28;20017;-80
2020/12/20 04:04:08;;;;;;;15.00;9.77;;;9.90;75.50;;;;;;1037323;28;20033;-80
2020/12/20 04:04:39;;;;;;;12.68;9.27;;;9.90;75.60;;;;;;1040953;28;20451;-80
2020/12/20 04:05:11;;;;;;;15.60;10.23;;;9.90;75.60;;;;;;1041280;28;20497;-80
2020/12/20 04:05:42;;;;;;;17.20;9.40;;;9.90;75.60;;;;;;1045010;28;20052;-80
2020/12/20 04:06:14;;;;;;;13.07;9.45;;;9.90;75.60;;;;;;1045311;28;20053;-80
2020/12/20 04:06:45;;;;;;;12.02;9.00;;;9.90;75.50;;;;;;1045143;28;20107;-80
2020/12/20 04:07:17;;;;;;;14.95;10.25;;;9.90;75.50;;;;;;1044651;28;20025;-80
2020/12/20 04:07:48;;;;;;;14.63;9.18;;;9.90;75.60;;;;;;1036928;28;20026;-80
2020/12/20 04:08:19;;;;;;;12.85;9.10;;;9.90;75.40;;;;;;1038060;28;20026;-80
2020/12/20 04:08:51;;;;;;;14.68;9.50;;;9.90;75.40;;;;;;1036792;28;20056;-79
2020/12/20 04:09:22;;;;;;;14.85;9.77;;;9.90;75.40;;;;;;1033216;28;20041;-80
2020/12/20 04:09:55;;;;;;;15.13;9.48;;;9.90;75.30;;;;;;1033380;28;20050;-81
2020/12/20 04:10:27;;;;;;;15.10;10.02;;;9.90;75.90;;;;;;1037596;28;20113;-81
2020/12/20 04:11:04;;;;;;;14.88;9.60;;;9.90;75.30;;;;;;1037564;28;20026;-80
2020/12/20 04:11:35;;;;;;;13.23;9.63;;;9.90;75.30;;;;;;1038246;28;20113;-82
2020/12/20 04:12:09;;;;;;;16.90;9.75;;;10.00;75.30;;;;;;1035697;28;20030;-81
2020/12/20 04:12:41;;;;;;;18.38;9.98;;;9.90;75.20;;;;;;1030583;28;20097;-81
2020/12/20 04:13:12;;;;;;;13.63;9.43;;;10.00;75.10;;;;;;1030750;28;20030;-81
2020/12/20 04:13:43;;;;;;;14.05;10.10;;;10.00;75.00;;;;;;1037028;28;20363;-81
2020/12/20 04:14:15;;;;;;;15.52;10.13;;;10.00;75.00;;;;;;1037685;28;20084;-82
2020/12/20 04:14:47;;;;;;;12.88;10.20;;;10.00;75.00;;;;;;1043514;28;20025;-81
2020/12/20 04:15:18;;;;;;;14.18;9.80;;;10.00;75.00;;;;;;1041575;28;20044;-82
2020/12/20 04:15:50;;;;;;;14.27;9.60;;;10.00;74.90;;;;;;1039877;28;20022;-81
2020/12/20 04:16:24;;;;;;;13.85;9.60;;;10.00;74.80;;;;;;1040135;28;20022;-81
2020/12/20 04:16:56;;;;;;;14.32;9.88;;;10.00;74.80;;;;;;1042495;28;20052;-80
2020/12/20 04:17:27;;;;;;;15.25;10.32;;;10.00;74.70;;;;;;1042900;28;20032;-79
2020/12/20 04:17:58;;;;;;;15.20;10.05;;;10.00;74.60;;;;;;1038445;28;20451;-81
2020/12/20 04:18:30;;;;;;;17.77;10.07;;;10.00;74.70;;;;;;1040997;28;20024;-81